首页
METAR-TAF:

METAR-TAF

机场 :

安東尼奧·汪帕特國際機場

阿加尼亚, 關島, 美国

纬度: 13-29N, 经度: 144-48E, 海拔: 91米

当前天气观测

该预报发布于18分钟前的09:54 UTC
风速10节,风向
温度 28°C
湿度 79%
气压 1013 hPa
能見度: 16.1公里
天空无云

METAR: PGUM 180954Z 10010KT 10SM CLR 28/24 A2990 RMK AO2 SLP117 T02780239 $

时间: 20:12 (10:12 UTC)

预报

该预报发布于4小时和33分钟前的05:39 UTC
预报有效从18日的 06点(UTC)到 19日的 12点(UTC)
风速14节,风向东转东南
能見度: 10公里
散云层高于2000英尺
多云层高于11000英尺
附近有阵雨
短暂存在
从 18日的 07点(UTC)到 18日的 11点(UTC)
风速14节,风向东转东南,有时为24节阵风
能見度: 4.8公里
少量云层高于1300英尺
多云层高于1800英尺
阴天层高于10000英尺
阵雨,

TAF: PGUM 180539Z 1806/1912 11014KT P6SM VCSH SCT020 BKN110 TEMPO 1807/1811 12014G24KT 3SM SHRA FEW013 BKN018 OVC100

超过4000个机场的气象观测和天气预报(METAR&TAF报告)。

可查询的气象台以黄色和红色小点在地图上表示。

将鼠标移到小点上方,可查看气象台名称。

然后点击查看天气观测和预报。

如需切换地图:点击带黑十字的绿色按钮放大地图;点击带横线的绿色按钮缩小地图;或者点击绿色箭头查看邻近地区的地图。


METAR-TAF: